sensor_id;sensor_type;location;lat;lon;timestamp;pressure;altitude;pressure_sealevel;temperature;humidity
73692;BME280;61996;49.910;35.562;2023-05-11T00:02:07;99822.88;;;19.24;33.00
73692;BME280;61996;49.910;35.562;2023-05-11T00:05:10;99832.00;;;19.22;33.01
73692;BME280;61996;49.910;35.562;2023-05-11T00:08:13;99826.53;;;19.33;33.10
73692;BME280;61996;49.910;35.562;2023-05-11T00:11:19;99831.47;;;19.37;33.21
73692;BME280;61996;49.910;35.562;2023-05-11T00:14:22;99824.31;;;19.28;33.16
73692;BME280;61996;49.910;35.562;2023-05-11T00:17:24;99824.69;;;19.24;33.13
73692;BME280;61996;49.910;35.562;2023-05-11T00:20:27;99828.50;;;19.21;33.21
73692;BME280;61996;49.910;35.562;2023-05-11T00:23:30;99832.44;;;19.27;33.19
73692;BME280;61996;49.910;35.562;2023-05-11T00:26:34;99830.72;;;19.26;33.28
73692;BME280;61996;49.910;35.562;2023-05-11T00:29:37;99837.19;;;19.23;33.26
73692;BME280;61996;49.910;35.562;2023-05-11T00:32:40;99834.13;;;19.28;33.01
73692;BME280;61996;49.910;35.562;2023-05-11T00:35:43;99834.13;;;19.28;33.04
73692;BME280;61996;49.910;35.562;2023-05-11T00:38:45;99840.00;;;19.22;33.23
73692;BME280;61996;49.910;35.562;2023-05-11T00:41:51;99834.66;;;19.22;33.33
73692;BME280;61996;49.910;35.562;2023-05-11T00:44:55;99829.47;;;19.20;33.30
73692;BME280;61996;49.910;35.562;2023-05-11T00:47:58;99834.97;;;19.28;33.37
73692;BME280;61996;49.910;35.562;2023-05-11T00:51:01;99835.66;;;19.30;33.26
73692;BME280;61996;49.910;35.562;2023-05-11T00:54:05;99837.88;;;19.25;33.22
73692;BME280;61996;49.910;35.562;2023-05-11T00:57:14;99831.59;;;19.26;33.17
73692;BME280;61996;49.910;35.562;2023-05-11T01:00:18;99834.38;;;19.25;33.20
73692;BME280;61996;49.910;35.562;2023-05-11T01:03:21;99834.38;;;19.25;33.15
73692;BME280;61996;49.910;35.562;2023-05-11T01:06:25;99832.00;;;19.22;33.33
73692;BME280;61996;49.910;35.562;2023-05-11T01:09:31;99824.84;;;19.22;33.26
73692;BME280;61996;49.910;35.562;2023-05-11T01:12:44;99828.50;;;19.21;33.27
73692;BME280;61996;49.910;35.562;2023-05-11T01:15:50;99829.34;;;19.22;33.35
73692;BME280;61996;49.910;35.562;2023-05-11T01:18:55;99840.00;;;19.22;33.27
73692;BME280;61996;49.910;35.562;2023-05-11T01:22:01;99831.59;;;19.26;33.24
73692;BME280;61996;49.910;35.562;2023-05-11T01:25:17;99827.22;;;19.25;33.20
73692;BME280;61996;49.910;35.562;2023-05-11T01:28:28;99820.34;;;19.23;33.20
73692;BME280;61996;49.910;35.562;2023-05-11T01:31:41;99826.66;;;19.22;33.14
73692;BME280;61996;49.910;35.562;2023-05-11T01:34:44;99824.84;;;19.22;33.16
73692;BME280;61996;49.910;35.562;2023-05-11T01:37:48;99825.09;;;19.19;33.20
73692;BME280;61996;49.910;35.562;2023-05-11T01:40:53;99828.94;;;19.26;33.15
73692;BME280;61996;49.910;35.562;2023-05-11T01:43:57;99821.19;;;19.23;33.28
73692;BME280;61996;49.910;35.562;2023-05-11T01:47:03;99820.66;;;19.20;33.14
73692;BME280;61996;49.910;35.562;2023-05-11T01:50:07;99825.97;;;19.20;33.00
73692;BME280;61996;49.910;35.562;2023-05-11T01:53:10;99827.91;;;19.17;33.23
73692;BME280;61996;49.910;35.562;2023-05-11T01:56:13;99825.09;;;19.19;33.01
73692;BME280;61996;49.910;35.562;2023-05-11T01:59:17;99822.03;;;19.14;33.33
73692;BME280;61996;49.910;35.562;2023-05-11T02:02:22;99816.56;;;19.15;33.18
73692;BME280;61996;49.910;35.562;2023-05-11T02:05:25;99829.72;;;19.17;33.12
73692;BME280;61996;49.910;35.562;2023-05-11T02:08:30;99826.22;;;19.16;33.05
73692;BME280;61996;49.910;35.562;2023-05-11T02:11:34;99829.03;;;19.15;33.23
73692;BME280;61996;49.910;35.562;2023-05-11T02:14:38;99828.19;;;19.14;33.23
73692;BME280;61996;49.910;35.562;2023-05-11T02:17:44;99841.53;;;19.24;33.20
73692;BME280;61996;49.910;35.562;2023-05-11T02:20:47;99841.00;;;19.21;33.20
73692;BME280;61996;49.910;35.562;2023-05-11T02:23:51;99838.19;;;19.22;33.10
73692;BME280;61996;49.910;35.562;2023-05-11T02:26:54;99838.44;;;19.19;33.25
73692;BME280;61996;49.910;35.562;2023-05-11T02:29:57;99838.31;;;19.21;33.29
73692;BME280;61996;49.910;35.562;2023-05-11T02:33:02;99842.53;;;19.23;33.21
73692;BME280;61996;49.910;35.562;2023-05-11T02:36:07;99834.66;;;19.22;33.40
73692;BME280;61996;49.910;35.562;2023-05-11T02:39:10;99842.66;;;19.22;33.13
73692;BME280;61996;49.910;35.562;2023-05-11T02:42:15;99843.91;;;19.17;33.35
73692;BME280;61996;49.910;35.562;2023-05-11T02:45:19;99837.88;;;19.15;32.98
73692;BME280;61996;49.910;35.562;2023-05-11T02:48:25;99839.16;;;19.21;33.26
73692;BME280;61996;49.910;35.562;2023-05-11T02:51:30;99843.22;;;19.25;33.35
73692;BME280;61996;49.910;35.562;2023-05-11T02:54:34;99851.13;;;19.27;33.29
73692;BME280;61996;49.910;35.562;2023-05-11T02:57:38;99848.84;;;19.22;33.30
73692;BME280;61996;49.910;35.562;2023-05-11T03:00:41;99853.34;;;19.22;33.40
73692;BME280;61996;49.910;35.562;2023-05-11T03:03:46;99855.56;;;19.16;33.38
73692;BME280;61996;49.910;35.562;2023-05-11T03:06:49;99853.47;;;19.20;33.37
73692;BME280;61996;49.910;35.562;2023-05-11T03:09:52;99864.13;;;19.20;33.43
73692;BME280;61996;49.910;35.562;2023-05-11T03:12:56;99861.59;;;19.18;33.31
73692;BME280;61996;49.910;35.562;2023-05-11T03:15:59;99854.56;;;19.17;33.27
73692;BME280;61996;49.910;35.562;2023-05-11T03:19:05;99855.00;;;19.23;33.33
73692;BME280;61996;49.910;35.562;2023-05-11T03:22:08;99858.06;;;19.18;33.13
73692;BME280;61996;49.910;35.562;2023-05-11T03:25:12;99859.66;;;19.21;33.20
73692;BME280;61996;49.910;35.562;2023-05-11T03:28:16;99862.16;;;19.22;33.27
73692;BME280;61996;49.910;35.562;2023-05-11T03:31:19;99865.81;;;19.21;33.20
73692;BME280;61996;49.910;35.562;2023-05-11T03:34:23;99865.69;;;19.23;33.16
73692;BME280;61996;49.910;35.562;2023-05-11T03:37:26;99866.28;;;19.26;33.11
73692;BME280;61996;49.910;35.562;2023-05-11T03:40:31;99873.13;;;19.29;33.39
73692;BME280;61996;49.910;35.562;2023-05-11T03:43:35;99867.81;;;19.29;33.34
73692;BME280;61996;49.910;35.562;2023-05-11T03:46:38;99871.19;;;19.31;33.31
73692;BME280;61996;49.910;35.562;2023-05-11T03:49:43;99870.47;;;19.29;33.22
73692;BME280;61996;49.910;35.562;2023-05-11T03:52:47;99878.63;;;19.27;33.15
73692;BME280;61996;49.910;35.562;2023-05-11T03:55:50;99883.09;;;19.27;33.27
73692;BME280;61996;49.910;35.562;2023-05-11T03:58:53;99874.69;;;19.31;33.24
73692;BME280;61996;49.910;35.562;2023-05-11T04:01:56;99877.09;;;19.34;33.38
73692;BME280;61996;49.910;35.562;2023-05-11T04:05:00;99881.31;;;19.37;33.35
73692;BME280;61996;49.910;35.562;2023-05-11T04:08:07;99886.06;;;19.33;33.42
73692;BME280;61996;49.910;35.562;2023-05-11T04:11:11;99887.03;;;19.32;33.32
73692;BME280;61996;49.910;35.562;2023-05-11T04:14:14;99878.91;;;19.34;33.32
73692;BME280;61996;49.910;35.562;2023-05-11T04:17:17;99883.69;;;19.40;33.21
73692;BME280;61996;49.910;35.562;2023-05-11T04:20:22;99888.91;;;19.41;33.14
73692;BME280;61996;49.910;35.562;2023-05-11T04:23:24;99880.06;;;19.41;33.15
73692;BME280;61996;49.910;35.562;2023-05-11T04:26:27;99887.91;;;19.42;33.18
73692;BME280;61996;49.910;35.562;2023-05-11T04:29:30;99891.81;;;19.38;33.35
73692;BME280;61996;49.910;35.562;2023-05-11T04:32:33;99888.63;;;19.44;33.44
73692;BME280;61996;49.910;35.562;2023-05-11T04:35:39;99888.38;;;19.48;33.32
73692;BME280;61996;49.910;35.562;2023-05-11T04:38:42;99885.56;;;19.49;33.21
73692;BME280;61996;49.910;35.562;2023-05-11T04:41:45;99884.59;;;19.60;33.01
73692;BME280;61996;49.910;35.562;2023-05-11T04:44:47;99887.16;;;19.61;33.03
73692;BME280;61996;49.910;35.562;2023-05-11T04:47:50;99891.22;;;19.65;33.01
73692;BME280;61996;49.910;35.562;2023-05-11T04:50:55;99890.53;;;19.63;33.01
73692;BME280;61996;49.910;35.562;2023-05-11T04:53:58;99901.34;;;19.71;32.82
73692;BME280;61996;49.910;35.562;2023-05-11T04:57:01;99890.69;;;19.71;32.94
73692;BME280;61996;49.910;35.562;2023-05-11T05:00:04;99894.63;;;19.77;32.78
73692;BME280;61996;49.910;35.562;2023-05-11T05:03:07;99892.22;;;19.74;32.99
73692;BME280;61996;49.910;35.562;2023-05-11T05:06:11;99893.22;;;19.83;32.87
73692;BME280;61996;49.910;35.562;2023-05-11T05:09:14;99892.94;;;19.86;32.66
73692;BME280;61996;49.910;35.562;2023-05-11T05:12:17;99888.28;;;19.88;32.73
73692;BME280;61996;49.910;35.562;2023-05-11T05:15:20;99887.88;;;19.92;32.71
73692;BME280;61996;49.910;35.562;2023-05-11T05:18:23;99891.25;;;19.94;32.65
73692;BME280;61996;49.910;35.562;2023-05-11T05:21:27;99882.25;;;19.95;32.62
73692;BME280;61996;49.910;35.562;2023-05-11T05:24:30;99888.72;;;19.93;32.59
73692;BME280;61996;49.910;35.562;2023-05-11T05:27:32;99883.38;;;19.93;32.64
73692;BME280;61996;49.910;35.562;2023-05-11T05:30:35;99885.91;;;19.94;32.43
73692;BME280;61996;49.910;35.562;2023-05-11T05:33:38;99874.97;;;19.97;32.55
73692;BME280;61996;49.910;35.562;2023-05-11T05:36:42;99880.03;;;20.01;32.42
73692;BME280;61996;49.910;35.562;2023-05-11T05:39:45;99879.88;;;20.02;32.46
73692;BME280;61996;49.910;35.562;2023-05-11T05:42:48;99875.53;;;20.01;32.29
73692;BME280;61996;49.910;35.562;2023-05-11T05:45:51;99877.78;;;20.06;32.33
73692;BME280;61996;49.910;35.562;2023-05-11T05:48:54;99881.13;;;20.08;32.20
73692;BME280;61996;49.910;35.562;2023-05-11T05:51:58;99874.97;;;20.07;32.14
73692;BME280;61996;49.910;35.562;2023-05-11T05:55:01;99875.81;;;20.08;32.14
73692;BME280;61996;49.910;35.562;2023-05-11T05:58:04;99879.59;;;20.05;32.22
73692;BME280;61996;49.910;35.562;2023-05-11T06:01:07;99877.38;;;20.10;32.24
73692;BME280;61996;49.910;35.562;2023-05-11T06:04:10;99884.53;;;20.10;32.22
73692;BME280;61996;49.910;35.562;2023-05-11T06:07:14;99874.09;;;20.16;32.22
73692;BME280;61996;49.910;35.562;2023-05-11T06:10:17;99876.78;;;20.16;32.04
73692;BME280;61996;49.910;35.562;2023-05-11T06:13:20;99872.44;;;20.15;32.01
73692;BME280;61996;49.910;35.562;2023-05-11T06:16:23;99885.78;;;20.25;31.94
73692;BME280;61996;49.910;35.562;2023-05-11T06:19:27;99881.28;;;20.25;31.99
73692;BME280;61996;49.910;35.562;2023-05-11T06:22:31;99894.34;;;20.29;31.98
73692;BME280;61996;49.910;35.562;2023-05-11T06:25:34;99891.66;;;20.29;31.89
73692;BME280;61996;49.910;35.562;2023-05-11T06:28:37;99884.66;;;20.27;31.79
73692;BME280;61996;49.910;35.562;2023-05-11T06:31:40;99893.81;;;20.25;31.74
73692;BME280;61996;49.910;35.562;2023-05-11T06:34:43;99892.13;;;20.24;31.91
73692;BME280;61996;49.910;35.562;2023-05-11T06:37:47;99890.28;;;20.24;31.61
73692;BME280;61996;49.910;35.562;2023-05-11T06:40:50;99890.97;;;20.26;31.79
73692;BME280;61996;49.910;35.562;2023-05-11T06:43:53;99888.00;;;20.30;31.81
73692;BME280;61996;49.910;35.562;2023-05-11T06:46:56;99883.94;;;20.35;31.66
73692;BME280;61996;49.910;35.562;2023-05-11T06:49:59;99887.91;;;20.31;31.56
73692;BME280;61996;49.910;35.562;2023-05-11T06:53:03;99880.28;;;20.36;31.42
73692;BME280;61996;49.910;35.562;2023-05-11T06:56:06;99894.34;;;20.38;31.48
73692;BME280;61996;49.910;35.562;2023-05-11T06:59:09;99890.13;;;20.36;31.54
73692;BME280;61996;49.910;35.562;2023-05-11T07:02:12;99889.56;;;20.42;31.72
73692;BME280;61996;49.910;35.562;2023-05-11T07:05:14;99891.53;;;20.40;31.80
73692;BME280;61996;49.910;35.562;2023-05-11T07:08:19;99889.69;;;20.40;31.68
73692;BME280;61996;49.910;35.562;2023-05-11T07:11:21;99885.66;;;20.46;31.49
73692;BME280;61996;49.910;35.562;2023-05-11T07:14:25;99888.56;;;20.43;31.84
73692;BME280;61996;49.910;35.562;2023-05-11T07:17:28;99888.59;;;20.52;31.53
73692;BME280;61996;49.910;35.562;2023-05-11T07:20:31;99879.16;;;20.48;31.63
73692;BME280;61996;49.910;35.562;2023-05-11T07:23:38;99886.19;;;20.49;31.57
73692;BME280;61996;49.910;35.562;2023-05-11T07:26:41;99887.50;;;20.45;31.48
73692;BME280;61996;49.910;35.562;2023-05-11T07:29:43;99891.84;;;20.46;31.41
73692;BME280;61996;49.910;35.562;2023-05-11T07:32:46;99891.53;;;20.49;31.49
73692;BME280;61996;49.910;35.562;2023-05-11T07:35:50;99892.25;;;20.51;31.46
73692;BME280;61996;49.910;35.562;2023-05-11T07:38:54;99894.34;;;20.48;31.29
73692;BME280;61996;49.910;35.562;2023-05-11T07:41:58;99893.94;;;20.52;31.40
73692;BME280;61996;49.910;35.562;2023-05-11T07:45:01;99888.72;;;20.51;31.55
73692;BME280;61996;49.910;35.562;2023-05-11T07:48:03;99886.91;;;20.51;31.39
73692;BME280;61996;49.910;35.562;2023-05-11T07:51:07;99888.28;;;20.56;31.39
73692;BME280;61996;49.910;35.562;2023-05-11T07:54:11;99885.09;;;20.52;31.40
73692;BME280;61996;49.910;35.562;2023-05-11T07:57:14;99884.78;;;20.55;31.47
73692;BME280;61996;49.910;35.562;2023-05-11T08:00:16;99879.13;;;20.58;31.52
73692;BME280;61996;49.910;35.562;2023-05-11T08:03:20;99890.28;;;20.53;31.49
73692;BME280;61996;49.910;35.562;2023-05-11T08:06:23;99876.91;;;20.53;31.59
73692;BME280;61996;49.910;35.562;2023-05-11T08:09:27;99885.19;;;20.60;31.26
73692;BME280;61996;49.910;35.562;2023-05-11T08:12:30;99877.75;;;20.54;31.81
73692;BME280;61996;49.910;35.562;2023-05-11T08:15:33;99874.94;;;20.56;31.38
73692;BME280;61996;49.910;35.562;2023-05-11T08:18:37;99870.59;;;20.55;31.73
73692;BME280;61996;49.910;35.562;2023-05-11T08:21:40;99862.00;;;20.61;32.39
73692;BME280;61996;49.910;35.562;2023-05-11T08:24:44;99865.22;;;20.64;31.97
73692;BME280;61996;49.910;35.562;2023-05-11T08:27:47;99847.22;;;20.66;31.66
73692;BME280;61996;49.910;35.562;2023-05-11T08:30:53;99857.50;;;20.61;30.51
73692;BME280;61996;49.910;35.562;2023-05-11T08:33:56;99864.56;;;20.33;30.05
73692;BME280;61996;49.910;35.562;2023-05-11T08:36:59;99858.34;;;20.23;30.32
73692;BME280;61996;49.910;35.562;2023-05-11T08:40:05;99859.75;;;20.37;31.29
73692;BME280;61996;49.910;35.562;2023-05-11T08:43:08;99861.84;;;20.62;30.76
73692;BME280;61996;49.910;35.562;2023-05-11T08:46:13;99869.28;;;20.68;30.60
73692;BME280;61996;49.910;35.562;2023-05-11T08:49:19;99873.09;;;20.66;30.89
73692;BME280;61996;49.910;35.562;2023-05-11T08:52:23;99869.56;;;20.65;30.82
73692;BME280;61996;49.910;35.562;2023-05-11T08:55:27;99867.34;;;20.61;30.86
73692;BME280;61996;49.910;35.562;2023-05-11T08:58:30;99875.63;;;20.67;30.89
73692;BME280;61996;49.910;35.562;2023-05-11T09:01:35;99870.81;;;20.71;31.13
73692;BME280;61996;49.910;35.562;2023-05-11T09:04:38;99870.38;;;20.75;31.80
73692;BME280;61996;49.910;35.562;2023-05-11T09:07:41;99872.34;;;20.83;31.34
73692;BME280;61996;49.910;35.562;2023-05-11T09:10:47;99876.16;;;20.80;31.88
73692;BME280;61996;49.910;35.562;2023-05-11T09:13:50;99873.78;;;20.68;31.47
73692;BME280;61996;49.910;35.562;2023-05-11T09:16:53;99873.22;;;20.74;31.44
73692;BME280;61996;49.910;35.562;2023-05-11T09:19:56;99867.31;;;20.70;30.92
73692;BME280;61996;49.910;35.562;2023-05-11T09:23:00;99866.19;;;20.63;31.51
73692;BME280;61996;49.910;35.562;2023-05-11T09:26:04;99865.63;;;20.69;30.94
73692;BME280;61996;49.910;35.562;2023-05-11T09:29:17;99864.63;;;20.70;31.86
73692;BME280;61996;49.910;35.562;2023-05-11T09:32:20;99864.47;;;20.72;30.94
73692;BME280;61996;49.910;35.562;2023-05-11T09:35:24;99859.00;;;20.73;31.41
73692;BME280;61996;49.910;35.562;2023-05-11T09:38:27;99857.44;;;20.80;30.86
73692;BME280;61996;49.910;35.562;2023-05-11T09:41:32;99845.34;;;20.76;30.99
73692;BME280;61996;49.910;35.562;2023-05-11T09:44:36;99854.88;;;20.79;30.73
73692;BME280;61996;49.910;35.562;2023-05-11T09:47:39;99854.88;;;20.79;30.87
73692;BME280;61996;49.910;35.562;2023-05-11T09:50:42;99849.84;;;20.76;30.75
73692;BME280;61996;49.910;35.562;2023-05-11T09:53:45;99849.00;;;20.75;31.05
73692;BME280;61996;49.910;35.562;2023-05-11T09:56:50;99847.44;;;20.83;30.82
73692;BME280;61996;49.910;35.562;2023-05-11T09:59:54;99847.88;;;20.78;31.06
73692;BME280;61996;49.910;35.562;2023-05-11T10:02:58;99843.91;;;20.82;30.62
73692;BME280;61996;49.910;35.562;2023-05-11T10:06:02;99839.09;;;20.86;30.44
73692;BME280;61996;49.910;35.562;2023-05-11T10:09:08;99842.50;;;20.88;30.34
73692;BME280;61996;49.910;35.562;2023-05-11T10:12:12;99833.06;;;20.84;30.64
73692;BME280;61996;49.910;35.562;2023-05-11T10:15:15;99839.66;;;20.89;31.32
73692;BME280;61996;49.910;35.562;2023-05-11T10:18:21;99835.47;;;20.87;30.44
73692;BME280;61996;49.910;35.562;2023-05-11T10:21:25;99835.47;;;20.87;30.68
73692;BME280;61996;49.910;35.562;2023-05-11T10:24:29;99836.44;;;20.86;30.86
73692;BME280;61996;49.910;35.562;2023-05-11T10:27:34;99848.38;;;20.91;31.00
73692;BME280;61996;49.910;35.562;2023-05-11T10:30:38;99844.59;;;20.84;30.62
73692;BME280;61996;49.910;35.562;2023-05-11T10:33:42;99848.53;;;20.90;30.28
73692;BME280;61996;49.910;35.562;2023-05-11T10:36:47;99855.16;;;20.86;30.18
73692;BME280;61996;49.910;35.562;2023-05-11T10:39:50;99848.97;;;20.85;30.44
73692;BME280;61996;49.910;35.562;2023-05-11T10:46:15;99837.16;;;20.88;30.38
73692;BME280;61996;49.910;35.562;2023-05-11T10:49:27;99843.75;;;20.93;30.25
73692;BME280;61996;49.910;35.562;2023-05-11T10:52:42;99845.56;;;20.93;30.79
73692;BME280;61996;49.910;35.562;2023-05-11T10:55:54;99842.59;;;20.96;30.32
73692;BME280;61996;49.910;35.562;2023-05-11T10:59:06;99840.19;;;20.93;30.31
73692;BME280;61996;49.910;35.562;2023-05-11T11:02:15;99835.72;;;20.93;30.85
73692;BME280;61996;49.910;35.562;2023-05-11T11:05:31;99844.72;;;20.92;30.44
73692;BME280;61996;49.910;35.562;2023-05-11T11:11:52;99847.25;;;20.94;29.75
73692;BME280;61996;49.910;35.562;2023-05-11T11:15:10;99854.56;;;20.92;29.97
73692;BME280;61996;49.910;35.562;2023-05-11T11:18:20;99847.53;;;20.91;29.80
73692;BME280;61996;49.910;35.562;2023-05-11T11:24:45;99852.59;;;20.94;30.24
73692;BME280;61996;49.910;35.562;2023-05-11T11:27:55;99837.41;;;20.94;29.89
73692;BME280;61996;49.910;35.562;2023-05-11T11:34:33;99823.88;;;20.96;31.17
73692;BME280;61996;49.910;35.562;2023-05-11T11:40:57;99825.56;;;20.97;31.09
73692;BME280;61996;49.910;35.562;2023-05-11T11:44:00;99832.91;;;20.95;30.01
73692;BME280;61996;49.910;35.562;2023-05-11T11:47:11;99838.25;;;20.95;29.95
73692;BME280;61996;49.910;35.562;2023-05-11T11:50:15;99829.22;;;20.96;30.05
73692;BME280;61996;49.910;35.562;2023-05-11T11:56:42;99823.88;;;20.96;29.75
73692;BME280;61996;49.910;35.562;2023-05-11T11:59:46;99829.22;;;20.96;29.82
73692;BME280;61996;49.910;35.562;2023-05-11T12:02:49;99815.72;;;20.97;30.12
73692;BME280;61996;49.910;35.562;2023-05-11T12:05:53;99821.06;;;20.97;29.95
73692;BME280;61996;49.910;35.562;2023-05-11T12:09:00;99823.31;;;21.02;30.04
73692;BME280;61996;49.910;35.562;2023-05-11T12:12:05;99812.44;;;21.03;29.60
73692;BME280;61996;49.910;35.562;2023-05-11T12:15:20;99813.28;;;21.04;30.07
73692;BME280;61996;49.910;35.562;2023-05-11T12:18:23;99812.44;;;21.03;29.64
73692;BME280;61996;49.910;35.562;2023-05-11T12:21:28;99815.13;;;21.03;29.65
73692;BME280;61996;49.910;35.562;2023-05-11T12:24:32;99821.16;;;21.05;29.65
73692;BME280;61996;49.910;35.562;2023-05-11T12:27:34;99826.38;;;21.07;29.35
73692;BME280;61996;49.910;35.562;2023-05-11T12:30:37;99821.91;;;20.98;29.77
73692;BME280;61996;49.910;35.562;2023-05-11T12:33:43;99822.75;;;20.98;29.71
73692;BME280;61996;49.910;35.562;2023-05-11T12:40:11;99823.88;;;20.96;29.55
73692;BME280;61996;49.910;35.562;2023-05-11T12:43:15;99837.69;;;20.91;29.29
73692;BME280;61996;49.910;35.562;2023-05-11T12:46:19;99831.91;;;20.96;29.61
73692;BME280;61996;49.910;35.562;2023-05-11T12:49:22;99835.25;;;20.98;29.45
73692;BME280;61996;49.910;35.562;2023-05-11T12:52:27;99832.91;;;20.95;29.53
73692;BME280;61996;49.910;35.562;2023-05-11T12:55:31;99834.75;;;20.94;29.42
73692;BME280;61996;49.910;35.562;2023-05-11T12:58:34;99838.25;;;20.95;29.67
73692;BME280;61996;49.910;35.562;2023-05-11T13:01:38;99834.16;;;20.91;29.78
73692;BME280;61996;49.910;35.562;2023-05-11T13:04:41;99836.41;;;20.95;29.67
73692;BME280;61996;49.910;35.562;2023-05-11T13:07:44;99840.91;;;20.95;29.48
73692;BME280;61996;49.910;35.562;2023-05-11T13:10:48;99836.56;;;20.94;29.73
73692;BME280;61996;49.910;35.562;2023-05-11T13:13:52;99840.19;;;20.93;29.81
73692;BME280;61996;49.910;35.562;2023-05-11T13:16:55;99847.09;;;20.95;29.60
73692;BME280;61996;49.910;35.562;2023-05-11T13:23:16;99839.78;;;20.97;29.74
73692;BME280;61996;49.910;35.562;2023-05-11T13:26:24;99835.56;;;20.95;29.59
73692;BME280;61996;49.910;35.562;2023-05-11T13:29:27;99844.69;;;21.02;29.59
73692;BME280;61996;49.910;35.562;2023-05-11T13:32:30;99838.63;;;21.00;29.63
73692;BME280;61996;49.910;35.562;2023-05-11T13:35:36;99833.44;;;20.98;29.75
73692;BME280;61996;49.910;35.562;2023-05-11T13:38:39;99832.31;;;21.01;29.91
73692;BME280;61996;49.910;35.562;2023-05-11T13:41:44;99830.59;;;21.00;29.73
73692;BME280;61996;49.910;35.562;2023-05-11T13:44:47;99826.81;;;21.02;29.62
73692;BME280;61996;49.910;35.562;2023-05-11T13:47:49;99840.03;;;21.04;29.71
73692;BME280;61996;49.910;35.562;2023-05-11T13:50:52;99831.16;;;21.03;29.71
73692;BME280;61996;49.910;35.562;2023-05-11T13:53:55;99841.03;;;21.03;29.72
73692;BME280;61996;49.910;35.562;2023-05-11T13:57:01;99835.09;;;21.09;29.69
73692;BME280;61996;49.910;35.562;2023-05-11T14:00:04;99825.66;;;21.05;29.68
73692;BME280;61996;49.910;35.562;2023-05-11T14:03:07;99837.34;;;21.04;29.83
73692;BME280;61996;49.910;35.562;2023-05-11T14:06:10;99837.91;;;21.07;29.91
73692;BME280;61996;49.910;35.562;2023-05-11T14:09:13;99833.41;;;21.08;29.87
73692;BME280;61996;49.910;35.562;2023-05-11T14:12:17;99832.25;;;21.11;30.05
73692;BME280;61996;49.910;35.562;2023-05-11T14:15:20;99832.41;;;21.09;29.79
73692;BME280;61996;49.910;35.562;2023-05-11T14:18:23;99837.59;;;21.11;29.69
73692;BME280;61996;49.910;35.562;2023-05-11T14:21:26;99829.06;;;21.07;29.72
73692;BME280;61996;49.910;35.562;2023-05-11T14:24:29;99838.75;;;21.08;30.01
73692;BME280;61996;49.910;35.562;2023-05-11T14:27:33;99842.41;;;21.07;29.89
73692;BME280;61996;49.910;35.562;2023-05-11T14:30:36;99847.22;;;21.03;29.98
73692;BME280;61996;49.910;35.562;2023-05-11T14:33:39;99829.19;;;21.05;29.95
73692;BME280;61996;49.910;35.562;2023-05-11T14:36:42;99834.25;;;21.08;29.87
73692;BME280;61996;49.910;35.562;2023-05-11T14:39:45;99833.41;;;21.08;29.94
73692;BME280;61996;49.910;35.562;2023-05-11T14:42:49;99837.91;;;21.07;30.00
73692;BME280;61996;49.910;35.562;2023-05-11T14:45:52;99830.25;;;21.13;29.75
73692;BME280;61996;49.910;35.562;2023-05-11T14:48:55;99831.09;;;21.13;29.41
73692;BME280;61996;49.910;35.562;2023-05-11T14:51:58;99826.06;;;21.10;29.42
73692;BME280;61996;49.910;35.562;2023-05-11T14:55:01;99829.59;;;21.11;29.61
73692;BME280;61996;49.910;35.562;2023-05-11T14:58:05;99832.25;;;21.11;29.41
73692;BME280;61996;49.910;35.562;2023-05-11T15:01:09;99837.84;;;21.17;29.32
73692;BME280;61996;49.910;35.562;2023-05-11T15:04:13;99829.69;;;21.19;30.48
73692;BME280;61996;49.910;35.562;2023-05-11T15:07:16;99833.66;;;21.15;30.17
73692;BME280;61996;49.910;35.562;2023-05-11T15:10:19;99832.50;;;21.17;29.80
73692;BME280;61996;49.910;35.562;2023-05-11T15:13:23;99842.63;;;21.23;29.26
73692;BME280;61996;49.910;35.562;2023-05-11T15:16:26;99831.91;;;21.23;29.44
73692;BME280;61996;49.910;35.562;2023-05-11T15:19:29;99831.91;;;21.23;29.07
73692;BME280;61996;49.910;35.562;2023-05-11T15:22:32;99835.59;;;21.22;29.39
73692;BME280;61996;49.910;35.562;2023-05-11T15:25:34;99832.75;;;21.24;29.24
73692;BME280;61996;49.910;35.562;2023-05-11T15:28:39;99836.94;;;21.26;29.28
73692;BME280;61996;49.910;35.562;2023-05-11T15:31:41;99834.88;;;21.20;29.36
73692;BME280;61996;49.910;35.562;2023-05-11T15:34:44;99834.19;;;21.18;29.09
73692;BME280;61996;49.910;35.562;2023-05-11T15:37:59;99842.22;;;21.18;28.95
73692;BME280;61996;49.910;35.562;2023-05-11T15:41:02;99834.50;;;21.15;29.34
73692;BME280;61996;49.910;35.562;2023-05-11T15:44:06;99844.34;;;21.15;29.30
73692;BME280;61996;49.910;35.562;2023-05-11T15:47:09;99848.72;;;21.16;29.59
73692;BME280;61996;49.910;35.562;2023-05-11T15:50:12;99847.16;;;21.13;29.82
73692;BME280;61996;49.910;35.562;2023-05-11T15:53:15;99860.53;;;21.13;29.63
73692;BME280;61996;49.910;35.562;2023-05-11T15:56:18;99860.69;;;21.12;29.79
73692;BME280;61996;49.910;35.562;2023-05-11T15:59:23;99861.13;;;21.07;30.02
73692;BME280;61996;49.910;35.562;2023-05-11T16:02:25;99856.31;;;21.11;29.99
73692;BME280;61996;49.910;35.562;2023-05-11T16:05:28;99858.31;;;21.08;29.96
73692;BME280;61996;49.910;35.562;2023-05-11T16:08:31;99853.25;;;21.05;30.23
73692;BME280;61996;49.910;35.562;2023-05-11T16:11:34;99854.22;;;21.04;30.25
73692;BME280;61996;49.910;35.562;2023-05-11T16:14:39;99857.75;;;21.05;30.16
73692;BME280;61996;49.910;35.562;2023-05-11T16:17:42;99863.41;;;21.02;30.19
73692;BME280;61996;49.910;35.562;2023-05-11T16:20:45;99862.41;;;21.03;30.17
73692;BME280;61996;49.910;35.562;2023-05-11T16:23:48;99861.00;;;20.99;30.24
73692;BME280;61996;49.910;35.562;2023-05-11T16:26:51;99868.34;;;20.97;30.25
73692;BME280;61996;49.910;35.562;2023-05-11T16:29:55;99865.66;;;20.97;30.46